HSF1169 RKJY-RKTA

Flight info

Callsign HSF1169
Flight time 1h 12m
Altitude 6500
Route DCT
Aircraft C172/L-S/C

Departure

Time 2026-05-05 04:56
Airport Yeosu Airport (RKJY)

Arrival

Time 2026-05-05 06:09
Airport Taean Airport (RKTA)
Time Latitude Longitude Altitude Speed Heading
2026-05-05 04:56 34.85941 127.60899 744 ft 78 kts 331°
2026-05-05 04:56 34.86446 127.60649 947 ft 78 kts 332°
2026-05-05 04:57 34.86955 127.60395 1150 ft 79 kts 332°
2026-05-05 04:57 34.87463 127.60139 1347 ft 80 kts 331°
2026-05-05 04:57 34.87979 127.59881 1550 ft 80 kts 331°
2026-05-05 04:57 34.88504 127.59624 1755 ft 80 kts 331°
2026-05-05 04:58 34.89024 127.59372 1952 ft 80 kts 332°
2026-05-05 04:58 34.89542 127.59122 2151 ft 79 kts 331°
2026-05-05 04:58 34.90062 127.58875 2337 ft 80 kts 332°
2026-05-05 04:58 34.90578 127.58628 2523 ft 81 kts 332°
2026-05-05 04:59 34.91106 127.58372 2714 ft 81 kts 332°
2026-05-05 04:59 34.91631 127.58111 2901 ft 81 kts 332°
2026-05-05 04:59 34.92157 127.57853 3084 ft 81 kts 334°
2026-05-05 04:59 34.92688 127.57617 3263 ft 82 kts 335°
2026-05-05 05:00 34.93224 127.57385 3449 ft 81 kts 335°
2026-05-05 05:00 34.93767 127.57148 3622 ft 82 kts 335°
2026-05-05 05:00 34.94308 127.56917 3798 ft 83 kts 335°
2026-05-05 05:00 34.94840 127.56686 4006 ft 82 kts 334°
2026-05-05 05:01 34.95386 127.56452 4203 ft 82 kts 334°
2026-05-05 05:01 34.95923 127.56225 4401 ft 82 kts 334°
2026-05-05 05:01 34.96462 127.55996 4590 ft 82 kts 335°
2026-05-05 05:01 34.97006 127.55764 4772 ft 83 kts 334°
2026-05-05 05:02 34.97557 127.55531 4961 ft 83 kts 334°
2026-05-05 05:02 34.98110 127.55296 5147 ft 84 kts 334°
2026-05-05 05:02 34.98663 127.55080 5331 ft 85 kts 340°
2026-05-05 05:02 34.99237 127.54907 5514 ft 85 kts 340°
2026-05-05 05:03 34.99817 127.54742 5705 ft 85 kts 341°
2026-05-05 05:03 35.00399 127.54578 5881 ft 86 kts 341°
2026-05-05 05:03 35.00973 127.54415 6065 ft 85 kts 341°
2026-05-05 05:03 35.01552 127.54248 6243 ft 85 kts 341°
2026-05-05 05:04 35.02122 127.54085 6416 ft 84 kts 341°
2026-05-05 05:04 35.02726 127.53909 6489 ft 96 kts 341°
2026-05-05 05:04 35.03437 127.53694 6500 ft 111 kts 342°
2026-05-05 05:04 35.04210 127.53473 6489 ft 114 kts 343°
2026-05-05 05:05 35.04977 127.53256 6487 ft 113 kts 343°
2026-05-05 05:05 35.05748 127.53036 6488 ft 113 kts 343°
2026-05-05 05:05 35.06511 127.52818 6485 ft 112 kts 343°
2026-05-05 05:05 35.07279 127.52595 6487 ft 113 kts 343°
2026-05-05 05:06 35.08049 127.52369 6488 ft 114 kts 343°
2026-05-05 05:06 35.08824 127.52135 6489 ft 114 kts 343°
2026-05-05 05:06 35.09603 127.51901 6490 ft 114 kts 343°
2026-05-05 05:06 35.10373 127.51668 6487 ft 114 kts 343°
2026-05-05 05:07 35.11155 127.51434 6485 ft 114 kts 343°
2026-05-05 05:07 35.11930 127.51211 6488 ft 114 kts 343°
2026-05-05 05:07 35.12696 127.50993 6487 ft 114 kts 343°
2026-05-05 05:07 35.13477 127.50768 6487 ft 114 kts 343°
2026-05-05 05:08 35.14246 127.50544 6484 ft 113 kts 343°
2026-05-05 05:08 35.15012 127.50322 6484 ft 113 kts 344°
2026-05-05 05:08 35.15781 127.50100 6481 ft 113 kts 343°
2026-05-05 05:08 35.16550 127.49876 6481 ft 113 kts 343°
2026-05-05 05:09 35.17318 127.49657 6483 ft 113 kts 343°
2026-05-05 05:09 35.18082 127.49439 6485 ft 114 kts 343°
2026-05-05 05:09 35.18854 127.49212 6485 ft 114 kts 340°
2026-05-05 05:09 35.19613 127.48903 6484 ft 114 kts 336°
2026-05-05 05:10 35.20344 127.48539 6486 ft 113 kts 328°
2026-05-05 05:10 35.21025 127.48054 6485 ft 113 kts 324°
2026-05-05 05:10 35.21692 127.47540 6485 ft 113 kts 323°
2026-05-05 05:10 35.22346 127.47024 6485 ft 112 kts 323°
2026-05-05 05:11 35.23006 127.46502 6486 ft 112 kts 323°
2026-05-05 05:11 35.23669 127.45981 6485 ft 112 kts 323°
2026-05-05 05:11 35.24321 127.45466 6485 ft 112 kts 323°
2026-05-05 05:11 35.24983 127.44942 6485 ft 112 kts 323°
2026-05-05 05:12 35.25642 127.44420 6482 ft 112 kts 324°
2026-05-05 05:12 35.26291 127.43903 6482 ft 112 kts 323°
2026-05-05 05:12 35.26949 127.43383 6483 ft 112 kts 323°
2026-05-05 05:12 35.27605 127.42865 6483 ft 112 kts 323°
2026-05-05 05:13 35.28264 127.42345 6482 ft 112 kts 323°
2026-05-05 05:13 35.28923 127.41821 6481 ft 113 kts 323°
2026-05-05 05:13 35.29586 127.41299 6481 ft 113 kts 323°
2026-05-05 05:13 35.30252 127.40779 6481 ft 113 kts 323°
2026-05-05 05:14 35.30907 127.40266 6480 ft 113 kts 323°
2026-05-05 05:14 35.31572 127.39748 6479 ft 113 kts 324°
2026-05-05 05:14 35.32235 127.39233 6479 ft 112 kts 323°
2026-05-05 05:14 35.32895 127.38715 6479 ft 112 kts 323°
2026-05-05 05:15 35.33556 127.38193 6478 ft 112 kts 323°
2026-05-05 05:15 35.34190 127.37657 6482 ft 111 kts 320°
2026-05-05 05:15 35.34811 127.37089 6479 ft 111 kts 319°
2026-05-05 05:15 35.35436 127.36517 6480 ft 111 kts 319°
2026-05-05 05:16 35.36054 127.35947 6482 ft 112 kts 319°
2026-05-05 05:16 35.36687 127.35363 6483 ft 112 kts 319°
2026-05-05 05:16 35.37317 127.34789 6483 ft 113 kts 319°
2026-05-05 05:16 35.37945 127.34215 6482 ft 113 kts 319°
2026-05-05 05:17 35.38589 127.33649 6481 ft 114 kts 321°
2026-05-05 05:17 35.39241 127.33092 6478 ft 113 kts 321°
2026-05-05 05:17 35.39893 127.32542 6478 ft 113 kts 321°
2026-05-05 05:17 35.40545 127.31988 6479 ft 113 kts 321°
2026-05-05 05:18 35.41198 127.31437 6476 ft 113 kts 321°
2026-05-05 05:18 35.41847 127.30891 6473 ft 113 kts 321°
2026-05-05 05:18 35.42492 127.30348 6470 ft 113 kts 321°
2026-05-05 05:18 35.43140 127.29797 6471 ft 112 kts 320°
2026-05-05 05:19 35.43779 127.29258 6474 ft 112 kts 321°
2026-05-05 05:19 35.44425 127.28714 6477 ft 112 kts 321°
2026-05-05 05:19 35.45067 127.28172 6477 ft 112 kts 321°
2026-05-05 05:19 35.45708 127.27629 6477 ft 112 kts 321°
2026-05-05 05:20 35.46360 127.27090 6477 ft 114 kts 325°
2026-05-05 05:20 35.47065 127.26630 6474 ft 114 kts 329°
2026-05-05 05:20 35.47775 127.26205 6474 ft 114 kts 329°
2026-05-05 05:20 35.48497 127.25792 6473 ft 114 kts 332°
2026-05-05 05:21 35.49233 127.25397 6475 ft 114 kts 332°
2026-05-05 05:21 35.49966 127.25005 6476 ft 114 kts 332°
2026-05-05 05:21 35.50691 127.24616 6477 ft 114 kts 332°
2026-05-05 05:21 35.51421 127.24227 6476 ft 114 kts 332°
2026-05-05 05:22 35.52160 127.23833 6475 ft 114 kts 332°
2026-05-05 05:22 35.52889 127.23439 6474 ft 114 kts 332°
2026-05-05 05:22 35.53615 127.23048 6474 ft 114 kts 332°
2026-05-05 05:22 35.54340 127.22657 6475 ft 114 kts 332°
2026-05-05 05:23 35.55075 127.22259 6476 ft 114 kts 332°
2026-05-05 05:23 35.55802 127.21864 6477 ft 114 kts 332°
2026-05-05 05:23 35.56529 127.21461 6477 ft 114 kts 332°
2026-05-05 05:23 35.57257 127.21061 6478 ft 114 kts 332°
2026-05-05 05:24 35.57987 127.20660 6478 ft 115 kts 332°
2026-05-05 05:24 35.58720 127.20265 6478 ft 115 kts 332°
2026-05-05 05:24 35.59451 127.19869 6477 ft 115 kts 332°
2026-05-05 05:24 35.60187 127.19476 6476 ft 115 kts 332°
2026-05-05 05:25 35.60925 127.19083 6476 ft 115 kts 332°
2026-05-05 05:25 35.61655 127.18698 6477 ft 114 kts 332°
2026-05-05 05:25 35.62390 127.18307 6475 ft 114 kts 332°
2026-05-05 05:25 35.63125 127.17918 6476 ft 114 kts 332°
2026-05-05 05:26 35.63856 127.17528 6475 ft 114 kts 332°
2026-05-05 05:26 35.64581 127.17143 6476 ft 113 kts 332°
2026-05-05 05:26 35.65310 127.16763 6476 ft 113 kts 333°
2026-05-05 05:26 35.66041 127.16386 6475 ft 114 kts 333°
2026-05-05 05:27 35.66775 127.16010 6474 ft 114 kts 333°
2026-05-05 05:27 35.67515 127.15634 6475 ft 115 kts 333°
2026-05-05 05:27 35.68993 127.14872 6479 ft 115 kts 333°
2026-05-05 05:28 35.69734 127.14497 6481 ft 115 kts 333°
2026-05-05 05:28 35.70477 127.14120 6481 ft 115 kts 333°
2026-05-05 05:28 35.71223 127.13746 6478 ft 115 kts 333°
2026-05-05 05:28 35.71962 127.13378 6480 ft 115 kts 333°
2026-05-05 05:29 35.72694 127.13013 6478 ft 112 kts 333°
2026-05-05 05:29 35.73427 127.12649 6477 ft 113 kts 333°
2026-05-05 05:29 35.74157 127.12284 6473 ft 113 kts 333°
2026-05-05 05:29 35.74882 127.11893 6475 ft 113 kts 330°
2026-05-05 05:30 35.75592 127.11503 6476 ft 113 kts 331°
2026-05-05 05:30 35.76318 127.11102 6477 ft 112 kts 331°
2026-05-05 05:30 35.77027 127.10692 6475 ft 112 kts 328°
2026-05-05 05:30 35.77715 127.10257 6475 ft 112 kts 328°
2026-05-05 05:31 35.78418 127.09817 6473 ft 113 kts 328°
2026-05-05 05:31 35.79124 127.09372 6470 ft 113 kts 328°
2026-05-05 05:31 35.79827 127.08930 6467 ft 113 kts 328°
2026-05-05 05:31 35.80529 127.08486 6469 ft 113 kts 328°
2026-05-05 05:32 35.81232 127.08044 6471 ft 113 kts 328°
2026-05-05 05:32 35.81932 127.07600 6470 ft 113 kts 328°
2026-05-05 05:32 35.82641 127.07153 6471 ft 114 kts 328°
2026-05-05 05:32 35.83345 127.06710 6466 ft 114 kts 328°
2026-05-05 05:33 35.84054 127.06266 6460 ft 114 kts 328°
2026-05-05 05:33 35.84766 127.05821 6459 ft 114 kts 328°
2026-05-05 05:33 35.85477 127.05379 6454 ft 114 kts 328°
2026-05-05 05:33 35.86195 127.04935 6456 ft 114 kts 328°
2026-05-05 05:34 35.86905 127.04494 6458 ft 114 kts 328°
2026-05-05 05:34 35.87613 127.04057 6465 ft 114 kts 328°
2026-05-05 05:34 35.88331 127.03614 6463 ft 115 kts 328°
2026-05-05 05:34 35.89043 127.03175 6456 ft 114 kts 328°
2026-05-05 05:35 35.89757 127.02737 6450 ft 114 kts 328°
2026-05-05 05:35 35.90463 127.02298 6453 ft 113 kts 328°
2026-05-05 05:35 35.91166 127.01861 6455 ft 113 kts 328°
2026-05-05 05:35 35.91874 127.01424 6457 ft 113 kts 328°
2026-05-05 05:36 35.92581 127.00989 6458 ft 114 kts 328°
2026-05-05 05:36 35.93292 127.00551 6454 ft 114 kts 328°
2026-05-05 05:36 35.94001 127.00111 6454 ft 113 kts 328°
2026-05-05 05:36 35.94706 126.99674 6456 ft 113 kts 328°
2026-05-05 05:37 35.95414 126.99235 6457 ft 114 kts 328°
2026-05-05 05:37 35.96113 126.98771 6453 ft 113 kts 325°
2026-05-05 05:37 35.96797 126.98277 6457 ft 113 kts 322°
2026-05-05 05:37 35.97454 126.97759 6456 ft 113 kts 322°
2026-05-05 05:38 35.98117 126.97229 6460 ft 114 kts 322°
2026-05-05 05:38 35.98784 126.96696 6461 ft 114 kts 322°
2026-05-05 05:38 35.99458 126.96157 6456 ft 114 kts 322°
2026-05-05 05:38 36.00121 126.95630 6456 ft 114 kts 322°
2026-05-05 05:39 36.00791 126.95100 6459 ft 114 kts 322°
2026-05-05 05:39 36.01463 126.94574 6460 ft 113 kts 322°
2026-05-05 05:39 36.02128 126.94055 6458 ft 113 kts 322°
2026-05-05 05:39 36.02798 126.93533 6451 ft 113 kts 322°
2026-05-05 05:40 36.03463 126.93016 6454 ft 112 kts 322°
2026-05-05 05:40 36.04121 126.92503 6455 ft 112 kts 322°
2026-05-05 05:40 36.04782 126.91984 6460 ft 112 kts 322°
2026-05-05 05:40 36.05448 126.91461 6463 ft 113 kts 322°
2026-05-05 05:41 36.06114 126.90939 6461 ft 112 kts 322°
2026-05-05 05:41 36.06774 126.90417 6459 ft 112 kts 322°
2026-05-05 05:41 36.07428 126.89896 6459 ft 111 kts 322°
2026-05-05 05:41 36.08078 126.89384 6466 ft 112 kts 322°
2026-05-05 05:42 36.08737 126.88865 6468 ft 112 kts 322°
2026-05-05 05:42 36.09405 126.88345 6465 ft 113 kts 322°
2026-05-05 05:42 36.10072 126.87825 6463 ft 113 kts 322°
2026-05-05 05:42 36.10737 126.87304 6458 ft 113 kts 322°
2026-05-05 05:43 36.11412 126.86783 6457 ft 113 kts 322°
2026-05-05 05:43 36.12072 126.86269 6455 ft 112 kts 322°
2026-05-05 05:43 36.12736 126.85752 6456 ft 112 kts 322°
2026-05-05 05:43 36.13397 126.85236 6462 ft 112 kts 322°
2026-05-05 05:44 36.14059 126.84719 6461 ft 112 kts 322°
2026-05-05 05:44 36.14715 126.84205 6463 ft 112 kts 322°
2026-05-05 05:44 36.15385 126.83680 6460 ft 112 kts 322°
2026-05-05 05:44 36.16046 126.83165 6462 ft 112 kts 322°
2026-05-05 05:45 36.16701 126.82653 6462 ft 112 kts 322°
2026-05-05 05:45 36.17371 126.82130 6460 ft 112 kts 322°
2026-05-05 05:45 36.18015 126.81606 6458 ft 111 kts 319°
2026-05-05 05:45 36.18646 126.81035 6462 ft 111 kts 317°
2026-05-05 05:46 36.19263 126.80457 6459 ft 111 kts 317°
2026-05-05 05:46 36.19881 126.79878 6462 ft 111 kts 317°
2026-05-05 05:46 36.20502 126.79295 6456 ft 111 kts 317°
2026-05-05 05:46 36.21118 126.78717 6456 ft 111 kts 317°
2026-05-05 05:47 36.21740 126.78128 6456 ft 111 kts 317°
2026-05-05 05:47 36.22356 126.77544 6454 ft 112 kts 317°
2026-05-05 05:47 36.22974 126.76959 6451 ft 112 kts 316°
2026-05-05 05:47 36.23593 126.76374 6454 ft 112 kts 317°
2026-05-05 05:48 36.24213 126.75787 6454 ft 112 kts 317°
2026-05-05 05:48 36.24831 126.75199 6453 ft 111 kts 317°
2026-05-05 05:48 36.25448 126.74614 6456 ft 111 kts 317°
2026-05-05 05:48 36.26059 126.74039 6454 ft 111 kts 316°
2026-05-05 05:49 36.26683 126.73460 6452 ft 111 kts 317°
2026-05-05 05:49 36.27301 126.72894 6450 ft 110 kts 317°
2026-05-05 05:49 36.27918 126.72330 6456 ft 110 kts 317°
2026-05-05 05:49 36.28543 126.71758 6453 ft 110 kts 317°
2026-05-05 05:50 36.29161 126.71191 6454 ft 110 kts 317°
2026-05-05 05:50 36.29777 126.70615 6456 ft 111 kts 317°
2026-05-05 05:50 36.30396 126.70035 6458 ft 111 kts 317°
2026-05-05 05:50 36.31011 126.69456 6457 ft 112 kts 317°
2026-05-05 05:51 36.31628 126.68873 6453 ft 111 kts 317°
2026-05-05 05:51 36.32244 126.68291 6449 ft 111 kts 317°
2026-05-05 05:51 36.32865 126.67705 6455 ft 111 kts 317°
2026-05-05 05:51 36.33476 126.67127 6454 ft 111 kts 317°
2026-05-05 05:52 36.34095 126.66538 6451 ft 111 kts 317°
2026-05-05 05:52 36.34708 126.65954 6445 ft 111 kts 317°
2026-05-05 05:52 36.35320 126.65375 6449 ft 111 kts 317°
2026-05-05 05:52 36.35936 126.64795 6455 ft 111 kts 317°
2026-05-05 05:53 36.36559 126.64211 6452 ft 111 kts 317°
2026-05-05 05:53 36.37180 126.63628 6454 ft 111 kts 317°
2026-05-05 05:53 36.37727 126.63000 6383 ft 106 kts 308°
2026-05-05 05:53 36.38234 126.62310 6188 ft 108 kts 307°
2026-05-05 05:54 36.38736 126.61613 5997 ft 109 kts 307°
2026-05-05 05:54 36.39244 126.60909 5811 ft 109 kts 307°
2026-05-05 05:54 36.39748 126.60207 5628 ft 109 kts 307°
2026-05-05 05:54 36.40252 126.59511 5445 ft 109 kts 307°
2026-05-05 05:55 36.40752 126.58814 5260 ft 109 kts 307°
2026-05-05 05:55 36.41253 126.58109 5073 ft 109 kts 307°
2026-05-05 05:55 36.41755 126.57407 4891 ft 108 kts 307°
2026-05-05 05:55 36.42207 126.56669 4710 ft 107 kts 300°
2026-05-05 05:56 36.42623 126.55898 4533 ft 107 kts 298°
2026-05-05 05:56 36.43037 126.55125 4359 ft 107 kts 298°
2026-05-05 05:56 36.43442 126.54365 4186 ft 107 kts 298°
2026-05-05 05:56 36.43854 126.53595 4016 ft 106 kts 298°
2026-05-05 05:57 36.44270 126.52831 3849 ft 107 kts 299°
2026-05-05 05:57 36.44688 126.52068 3686 ft 106 kts 299°
2026-05-05 05:57 36.45104 126.51314 3523 ft 106 kts 298°
2026-05-05 05:57 36.45523 126.50555 3361 ft 106 kts 298°
2026-05-05 05:58 36.45945 126.49793 3195 ft 105 kts 299°
2026-05-05 05:58 36.46363 126.49039 2954 ft 108 kts 298°
2026-05-05 05:58 36.46790 126.48270 2711 ft 109 kts 299°
2026-05-05 05:58 36.47215 126.47508 2480 ft 108 kts 299°
2026-05-05 05:59 36.47642 126.46742 2244 ft 107 kts 299°
2026-05-05 05:59 36.48062 126.45988 2015 ft 106 kts 299°
2026-05-05 05:59 36.48481 126.45235 1785 ft 106 kts 298°
2026-05-05 05:59 36.48907 126.44487 1553 ft 106 kts 299°
2026-05-05 06:00 36.49473 126.43506 1454 ft 103 kts 303°
2026-05-05 06:00 36.49813 126.43089 1447 ft 103 kts 313°
2026-05-05 06:00 36.50413 126.42612 1446 ft 106 kts 328°
2026-05-05 06:00 36.51118 126.42294 1450 ft 109 kts 336°
2026-05-05 06:01 36.51855 126.42017 1451 ft 110 kts 337°
2026-05-05 06:01 36.52589 126.41744 1450 ft 111 kts 337°
2026-05-05 06:01 36.53330 126.41463 1441 ft 108 kts 337°
2026-05-05 06:01 36.54048 126.41183 1309 ft 109 kts 336°
2026-05-05 06:02 36.54781 126.40893 1153 ft 109 kts 337°
2026-05-05 06:02 36.55493 126.40570 1003 ft 109 kts 333°
2026-05-05 06:02 36.56162 126.40153 964 ft 105 kts 326°
2026-05-05 06:02 36.56784 126.39709 966 ft 102 kts 319°
2026-05-05 06:03 36.57379 126.39216 969 ft 103 kts 319°
2026-05-05 06:03 36.57982 126.38718 974 ft 103 kts 319°
2026-05-05 06:03 36.58585 126.38218 978 ft 106 kts 319°
2026-05-05 06:03 36.59201 126.37711 975 ft 105 kts 319°
2026-05-05 06:04 36.59739 126.37138 970 ft 98 kts 293°
2026-05-05 06:04 36.59927 126.36353 972 ft 93 kts 272°
2026-05-05 06:04 36.60013 126.35571 972 ft 91 kts 269°
2026-05-05 06:04 36.60017 126.34778 979 ft 90 kts 260°
2026-05-05 06:05 36.59967 126.33992 976 ft 90 kts 258°
2026-05-05 06:05 36.59913 126.33218 963 ft 91 kts 258°
2026-05-05 06:05 36.59863 126.32430 974 ft 90 kts 258°
2026-05-05 06:05 36.60192 126.31777 1012 ft 100 kts 320°
2026-05-05 06:06 36.60785 126.31304 1016 ft 102 kts 319°
2026-05-05 06:06 36.61358 126.30871 1007 ft 85 kts 320°
2026-05-05 06:06 36.61830 126.30504 882 ft 80 kts 319°
2026-05-05 06:06 36.62198 126.30056 715 ft 69 kts 266°
2026-05-05 06:07 36.62023 126.29558 601 ft 57 kts 239°
2026-05-05 06:07 36.61845 126.29130 489 ft 55 kts 230°
2026-05-05 06:07 36.61634 126.28719 404 ft 56 kts 231°
2026-05-05 06:07 36.61395 126.28346 340 ft 55 kts 205°
2026-05-05 06:08 36.61036 126.28508 233 ft 57 kts 148°
2026-05-05 06:08 36.60703 126.28738 217 ft 54 kts 156°
2026-05-05 06:08 36.60380 126.28961 155 ft 52 kts 156°
2026-05-05 06:08 36.60061 126.29189 84 ft 53 kts 155°
2026-05-05 06:09 36.59748 126.29409 16 ft 44 kts 152°
2026-05-05 06:09 36.59571 126.29516 18 ft 0 kts 214°
2026-05-05 06:09 36.59575 126.29476 19 ft 6 kts 239°
2026-05-05 06:09 36.59574 126.29475 19 ft 0 kts 239°
2026-05-05 06:10 36.59552 126.29442 20 ft 6 kts 191°
2026-05-05 06:10 36.59535 126.29436 20 ft 1 kts 242°
2026-05-05 06:10 36.59530 126.29426 21 ft 0 kts 239°